sensor_id;sensor_type;location;lat;lon;timestamp;temperature;humidity
9057;DHT22;4563;54.756;9.400;2022-12-20T00:00:01;8.70;81.20
9057;DHT22;4563;54.756;9.400;2022-12-20T00:02:29;8.70;81.20
9057;DHT22;4563;54.756;9.400;2022-12-20T00:04:56;8.80;81.30
9057;DHT22;4563;54.756;9.400;2022-12-20T00:07:23;8.80;81.30
9057;DHT22;4563;54.756;9.400;2022-12-20T00:09:50;8.80;81.40
9057;DHT22;4563;54.756;9.400;2022-12-20T00:12:16;8.80;81.30
9057;DHT22;4563;54.756;9.400;2022-12-20T00:14:43;8.80;81.40
9057;DHT22;4563;54.756;9.400;2022-12-20T00:17:10;8.80;81.40
9057;DHT22;4563;54.756;9.400;2022-12-20T00:19:38;8.80;81.30
9057;DHT22;4563;54.756;9.400;2022-12-20T00:22:05;8.80;81.40
9057;DHT22;4563;54.756;9.400;2022-12-20T00:24:33;8.80;81.40
9057;DHT22;4563;54.756;9.400;2022-12-20T00:26:59;8.90;81.50
9057;DHT22;4563;54.756;9.400;2022-12-20T00:29:26;8.90;81.50
9057;DHT22;4563;54.756;9.400;2022-12-20T00:31:53;8.90;81.50
9057;DHT22;4563;54.756;9.400;2022-12-20T00:34:20;8.90;81.50
9057;DHT22;4563;54.756;9.400;2022-12-20T00:36:48;8.90;81.50
9057;DHT22;4563;54.756;9.400;2022-12-20T00:39:15;8.90;81.50
9057;DHT22;4563;54.756;9.400;2022-12-20T00:41:42;8.90;81.50
9057;DHT22;4563;54.756;9.400;2022-12-20T00:44:09;8.90;81.50
9057;DHT22;4563;54.756;9.400;2022-12-20T00:46:35;8.90;81.50
9057;DHT22;4563;54.756;9.400;2022-12-20T00:49:02;8.90;81.50
9057;DHT22;4563;54.756;9.400;2022-12-20T00:51:29;9.00;81.70
9057;DHT22;4563;54.756;9.400;2022-12-20T00:53:58;9.00;81.70
9057;DHT22;4563;54.756;9.400;2022-12-20T00:56:25;9.00;81.60
9057;DHT22;4563;54.756;9.400;2022-12-20T00:58:52;9.00;81.60
9057;DHT22;4563;54.756;9.400;2022-12-20T01:01:22;9.00;81.70
9057;DHT22;4563;54.756;9.400;2022-12-20T01:03:50;9.00;81.70
9057;DHT22;4563;54.756;9.400;2022-12-20T01:06:17;9.00;81.70
9057;DHT22;4563;54.756;9.400;2022-12-20T01:08:45;9.00;81.70
9057;DHT22;4563;54.756;9.400;2022-12-20T01:11:21;9.00;81.70
9057;DHT22;4563;54.756;9.400;2022-12-20T01:13:50;9.00;81.50
9057;DHT22;4563;54.756;9.400;2022-12-20T01:16:19;9.10;81.80
9057;DHT22;4563;54.756;9.400;2022-12-20T01:18:47;9.10;81.90
9057;DHT22;4563;54.756;9.400;2022-12-20T01:21:15;9.10;81.80
9057;DHT22;4563;54.756;9.400;2022-12-20T01:23:42;9.10;81.90
9057;DHT22;4563;54.756;9.400;2022-12-20T01:26:11;9.10;81.80
9057;DHT22;4563;54.756;9.400;2022-12-20T01:28:42;9.10;81.90
9057;DHT22;4563;54.756;9.400;2022-12-20T01:31:10;9.10;82.60
9057;DHT22;4563;54.756;9.400;2022-12-20T01:33:37;9.10;81.90
9057;DHT22;4563;54.756;9.400;2022-12-20T01:36:07;9.20;82.00
9057;DHT22;4563;54.756;9.400;2022-12-20T01:38:34;9.20;81.90
9057;DHT22;4563;54.756;9.400;2022-12-20T01:41:02;9.20;82.00
9057;DHT22;4563;54.756;9.400;2022-12-20T01:43:49;9.20;82.00
9057;DHT22;4563;54.756;9.400;2022-12-20T01:46:16;9.20;81.70
9057;DHT22;4563;54.756;9.400;2022-12-20T01:48:47;9.20;82.10
9057;DHT22;4563;54.756;9.400;2022-12-20T01:51:15;9.20;82.10
9057;DHT22;4563;54.756;9.400;2022-12-20T01:53:43;9.20;82.10
9057;DHT22;4563;54.756;9.400;2022-12-20T01:56:10;9.30;82.10
9057;DHT22;4563;54.756;9.400;2022-12-20T01:58:37;9.30;82.10
9057;DHT22;4563;54.756;9.400;2022-12-20T02:01:06;9.30;82.10
9057;DHT22;4563;54.756;9.400;2022-12-20T02:03:33;9.30;82.10
9057;DHT22;4563;54.756;9.400;2022-12-20T02:06:14;9.30;82.10
9057;DHT22;4563;54.756;9.400;2022-12-20T02:08:42;9.30;81.90
9057;DHT22;4563;54.756;9.400;2022-12-20T02:11:21;9.30;82.10
9057;DHT22;4563;54.756;9.400;2022-12-20T02:14:01;9.30;82.00
9057;DHT22;4563;54.756;9.400;2022-12-20T02:16:38;9.40;82.10
9057;DHT22;4563;54.756;9.400;2022-12-20T02:19:13;9.40;82.20
9057;DHT22;4563;54.756;9.400;2022-12-20T02:21:47;9.40;82.10
9057;DHT22;4563;54.756;9.400;2022-12-20T02:24:43;9.40;82.20
9057;DHT22;4563;54.756;9.400;2022-12-20T02:27:27;9.40;82.00
9057;DHT22;4563;54.756;9.400;2022-12-20T02:30:12;9.40;82.00
9057;DHT22;4563;54.756;9.400;2022-12-20T02:32:46;9.50;82.00
9057;DHT22;4563;54.756;9.400;2022-12-20T02:35:20;9.50;82.30
9057;DHT22;4563;54.756;9.400;2022-12-20T02:37:49;9.50;82.30
9057;DHT22;4563;54.756;9.400;2022-12-20T02:40:20;9.50;82.30
9057;DHT22;4563;54.756;9.400;2022-12-20T02:42:50;9.50;82.30
9057;DHT22;4563;54.756;9.400;2022-12-20T02:45:20;9.50;82.30
9057;DHT22;4563;54.756;9.400;2022-12-20T02:47:49;9.50;82.30
9057;DHT22;4563;54.756;9.400;2022-12-20T02:50:21;9.50;82.30
9057;DHT22;4563;54.756;9.400;2022-12-20T02:52:50;9.60;82.40
9057;DHT22;4563;54.756;9.400;2022-12-20T02:55:17;9.50;82.30
9057;DHT22;4563;54.756;9.400;2022-12-20T02:57:50;9.60;82.40
9057;DHT22;4563;54.756;9.400;2022-12-20T03:00:22;9.60;82.40
9057;DHT22;4563;54.756;9.400;2022-12-20T03:02:50;9.60;82.40
9057;DHT22;4563;54.756;9.400;2022-12-20T03:05:42;9.60;82.40
9057;DHT22;4563;54.756;9.400;2022-12-20T03:08:09;9.60;82.50
9057;DHT22;4563;54.756;9.400;2022-12-20T03:10:36;9.60;82.40
9057;DHT22;4563;54.756;9.400;2022-12-20T03:13:03;9.60;82.50
9057;DHT22;4563;54.756;9.400;2022-12-20T03:15:31;9.60;82.50
9057;DHT22;4563;54.756;9.400;2022-12-20T03:17:58;9.60;82.40
9057;DHT22;4563;54.756;9.400;2022-12-20T03:20:24;9.70;82.50
9057;DHT22;4563;54.756;9.400;2022-12-20T03:22:51;9.60;82.50
9057;DHT22;4563;54.756;9.400;2022-12-20T03:25:18;9.70;82.60
9057;DHT22;4563;54.756;9.400;2022-12-20T03:27:45;9.70;82.60
9057;DHT22;4563;54.756;9.400;2022-12-20T03:30:13;9.70;82.60
9057;DHT22;4563;54.756;9.400;2022-12-20T03:32:41;9.70;82.60
9057;DHT22;4563;54.756;9.400;2022-12-20T03:35:08;9.70;82.60
9057;DHT22;4563;54.756;9.400;2022-12-20T03:37:35;9.70;82.60
9057;DHT22;4563;54.756;9.400;2022-12-20T03:40:03;9.70;82.60
9057;DHT22;4563;54.756;9.400;2022-12-20T03:42:30;9.70;82.60
9057;DHT22;4563;54.756;9.400;2022-12-20T03:44:57;9.70;82.60
9057;DHT22;4563;54.756;9.400;2022-12-20T03:47:23;9.70;82.60
9057;DHT22;4563;54.756;9.400;2022-12-20T03:49:52;9.70;82.50
9057;DHT22;4563;54.756;9.400;2022-12-20T03:52:19;9.70;82.20
9057;DHT22;4563;54.756;9.400;2022-12-20T03:54:45;9.70;82.70
9057;DHT22;4563;54.756;9.400;2022-12-20T03:57:12;9.70;82.30
9057;DHT22;4563;54.756;9.400;2022-12-20T03:59:39;9.70;82.60
9057;DHT22;4563;54.756;9.400;2022-12-20T04:02:06;9.80;82.50
9057;DHT22;4563;54.756;9.400;2022-12-20T04:04:33;9.80;82.60
9057;DHT22;4563;54.756;9.400;2022-12-20T04:07:01;9.80;82.60
9057;DHT22;4563;54.756;9.400;2022-12-20T04:09:28;9.80;82.60
9057;DHT22;4563;54.756;9.400;2022-12-20T04:11:55;9.80;82.60
9057;DHT22;4563;54.756;9.400;2022-12-20T04:14:22;9.80;82.50
9057;DHT22;4563;54.756;9.400;2022-12-20T04:16:48;9.80;82.60
9057;DHT22;4563;54.756;9.400;2022-12-20T04:19:15;9.80;82.60
9057;DHT22;4563;54.756;9.400;2022-12-20T04:21:42;9.80;82.60
9057;DHT22;4563;54.756;9.400;2022-12-20T04:24:10;9.80;82.60
9057;DHT22;4563;54.756;9.400;2022-12-20T04:26:37;9.80;82.40
9057;DHT22;4563;54.756;9.400;2022-12-20T04:29:04;9.80;82.50
9057;DHT22;4563;54.756;9.400;2022-12-20T04:31:31;9.80;82.60
9057;DHT22;4563;54.756;9.400;2022-12-20T04:33:58;9.80;82.40
9057;DHT22;4563;54.756;9.400;2022-12-20T04:36:25;9.80;82.30
9057;DHT22;4563;54.756;9.400;2022-12-20T04:38:52;9.80;82.50
9057;DHT22;4563;54.756;9.400;2022-12-20T04:41:20;9.80;82.40
9057;DHT22;4563;54.756;9.400;2022-12-20T04:43:49;9.80;82.40
9057;DHT22;4563;54.756;9.400;2022-12-20T04:46:16;9.80;82.40
9057;DHT22;4563;54.756;9.400;2022-12-20T04:48:43;9.80;82.40
9057;DHT22;4563;54.756;9.400;2022-12-20T04:51:10;9.90;82.50
9057;DHT22;4563;54.756;9.400;2022-12-20T04:53:36;9.80;82.10
9057;DHT22;4563;54.756;9.400;2022-12-20T04:56:18;9.80;82.20
9057;DHT22;4563;54.756;9.400;2022-12-20T04:58:48;9.80;82.10
9057;DHT22;4563;54.756;9.400;2022-12-20T05:01:16;9.80;82.30
9057;DHT22;4563;54.756;9.400;2022-12-20T05:03:43;9.80;82.10
9057;DHT22;4563;54.756;9.400;2022-12-20T05:06:09;9.80;82.30
9057;DHT22;4563;54.756;9.400;2022-12-20T05:08:37;9.80;82.10
9057;DHT22;4563;54.756;9.400;2022-12-20T05:11:04;9.80;82.40
9057;DHT22;4563;54.756;9.400;2022-12-20T05:13:31;9.80;82.30
9057;DHT22;4563;54.756;9.400;2022-12-20T05:16:00;9.80;82.30
9057;DHT22;4563;54.756;9.400;2022-12-20T05:18:27;9.80;82.20
9057;DHT22;4563;54.756;9.400;2022-12-20T05:20:55;9.90;82.30
9057;DHT22;4563;54.756;9.400;2022-12-20T05:23:36;9.90;82.50
9057;DHT22;4563;54.756;9.400;2022-12-20T05:26:21;9.80;82.20
9057;DHT22;4563;54.756;9.400;2022-12-20T05:28:49;9.80;82.30
9057;DHT22;4563;54.756;9.400;2022-12-20T05:31:17;9.80;82.40
9057;DHT22;4563;54.756;9.400;2022-12-20T05:33:44;9.80;82.30
9057;DHT22;4563;54.756;9.400;2022-12-20T05:36:11;9.80;82.40
9057;DHT22;4563;54.756;9.400;2022-12-20T05:38:38;9.80;82.30
9057;DHT22;4563;54.756;9.400;2022-12-20T05:41:05;9.80;82.40
9057;DHT22;4563;54.756;9.400;2022-12-20T05:43:33;9.80;82.40
9057;DHT22;4563;54.756;9.400;2022-12-20T05:46:00;9.80;82.30
9057;DHT22;4563;54.756;9.400;2022-12-20T05:48:28;9.80;82.40
9057;DHT22;4563;54.756;9.400;2022-12-20T05:50:55;9.80;82.50
9057;DHT22;4563;54.756;9.400;2022-12-20T05:53:22;9.80;82.50
9057;DHT22;4563;54.756;9.400;2022-12-20T05:55:50;9.80;82.50
9057;DHT22;4563;54.756;9.400;2022-12-20T05:58:17;9.80;83.20
9057;DHT22;4563;54.756;9.400;2022-12-20T06:00:44;9.80;82.50
9057;DHT22;4563;54.756;9.400;2022-12-20T06:03:12;9.80;82.50
9057;DHT22;4563;54.756;9.400;2022-12-20T06:05:41;9.70;82.30
9057;DHT22;4563;54.756;9.400;2022-12-20T06:08:09;9.70;82.40
9057;DHT22;4563;54.756;9.400;2022-12-20T06:10:36;9.70;82.40
9057;DHT22;4563;54.756;9.400;2022-12-20T06:13:05;9.70;82.50
9057;DHT22;4563;54.756;9.400;2022-12-20T06:15:32;9.70;82.50
9057;DHT22;4563;54.756;9.400;2022-12-20T06:17:59;9.70;82.40
9057;DHT22;4563;54.756;9.400;2022-12-20T06:20:27;9.70;82.30
9057;DHT22;4563;54.756;9.400;2022-12-20T06:22:55;9.70;82.40
9057;DHT22;4563;54.756;9.400;2022-12-20T06:25:22;9.70;82.40
9057;DHT22;4563;54.756;9.400;2022-12-20T06:27:49;9.70;82.50
9057;DHT22;4563;54.756;9.400;2022-12-20T06:30:16;9.80;82.40
9057;DHT22;4563;54.756;9.400;2022-12-20T06:32:43;9.70;82.30
9057;DHT22;4563;54.756;9.400;2022-12-20T06:35:10;9.70;82.40
9057;DHT22;4563;54.756;9.400;2022-12-20T06:37:37;9.80;82.50
9057;DHT22;4563;54.756;9.400;2022-12-20T06:40:08;9.80;82.60
9057;DHT22;4563;54.756;9.400;2022-12-20T06:42:35;9.80;82.50
9057;DHT22;4563;54.756;9.400;2022-12-20T06:45:03;9.80;82.40
9057;DHT22;4563;54.756;9.400;2022-12-20T06:47:30;9.80;82.60
9057;DHT22;4563;54.756;9.400;2022-12-20T06:49:57;9.80;82.40
9057;DHT22;4563;54.756;9.400;2022-12-20T06:52:24;9.80;82.50
9057;DHT22;4563;54.756;9.400;2022-12-20T06:54:51;9.80;82.50
9057;DHT22;4563;54.756;9.400;2022-12-20T06:57:19;9.80;82.50
9057;DHT22;4563;54.756;9.400;2022-12-20T06:59:46;9.80;83.30
9057;DHT22;4563;54.756;9.400;2022-12-20T07:02:13;9.80;82.60
9057;DHT22;4563;54.756;9.400;2022-12-20T07:04:40;9.80;82.60
9057;DHT22;4563;54.756;9.400;2022-12-20T07:07:07;9.80;82.40
9057;DHT22;4563;54.756;9.400;2022-12-20T07:09:34;9.80;82.40
9057;DHT22;4563;54.756;9.400;2022-12-20T07:12:02;9.80;82.50
9057;DHT22;4563;54.756;9.400;2022-12-20T07:14:31;9.80;82.60
9057;DHT22;4563;54.756;9.400;2022-12-20T07:17:03;9.80;82.50
9057;DHT22;4563;54.756;9.400;2022-12-20T07:19:30;9.80;82.50
9057;DHT22;4563;54.756;9.400;2022-12-20T07:21:57;9.70;82.30
9057;DHT22;4563;54.756;9.400;2022-12-20T07:24:24;9.70;82.30
9057;DHT22;4563;54.756;9.400;2022-12-20T07:26:50;9.70;82.40
9057;DHT22;4563;54.756;9.400;2022-12-20T07:29:17;9.80;82.50
9057;DHT22;4563;54.756;9.400;2022-12-20T07:31:49;9.80;82.40
9057;DHT22;4563;54.756;9.400;2022-12-20T07:34:17;9.80;82.30
9057;DHT22;4563;54.756;9.400;2022-12-20T07:36:43;9.80;82.40
9057;DHT22;4563;54.756;9.400;2022-12-20T07:39:10;9.80;82.40
9057;DHT22;4563;54.756;9.400;2022-12-20T07:41:37;9.80;82.20
9057;DHT22;4563;54.756;9.400;2022-12-20T07:44:04;9.80;82.30
9057;DHT22;4563;54.756;9.400;2022-12-20T07:46:32;9.80;82.40
9057;DHT22;4563;54.756;9.400;2022-12-20T07:49:00;9.90;82.50
9057;DHT22;4563;54.756;9.400;2022-12-20T07:51:29;9.90;82.30
9057;DHT22;4563;54.756;9.400;2022-12-20T07:54:05;9.90;82.50
9057;DHT22;4563;54.756;9.400;2022-12-20T07:56:33;9.90;82.30
9057;DHT22;4563;54.756;9.400;2022-12-20T07:59:02;9.90;82.50
9057;DHT22;4563;54.756;9.400;2022-12-20T08:01:30;10.00;81.30
9057;DHT22;4563;54.756;9.400;2022-12-20T08:04:01;10.00;81.20
9057;DHT22;4563;54.756;9.400;2022-12-20T08:06:29;10.00;81.50
9057;DHT22;4563;54.756;9.400;2022-12-20T08:08:58;10.00;81.40
9057;DHT22;4563;54.756;9.400;2022-12-20T08:11:28;10.00;81.40
9057;DHT22;4563;54.756;9.400;2022-12-20T08:13:56;10.10;81.50
9057;DHT22;4563;54.756;9.400;2022-12-20T08:16:23;10.10;81.50
9057;DHT22;4563;54.756;9.400;2022-12-20T08:18:50;10.10;81.40
9057;DHT22;4563;54.756;9.400;2022-12-20T08:21:18;10.10;81.50
9057;DHT22;4563;54.756;9.400;2022-12-20T08:23:45;10.20;81.50
9057;DHT22;4563;54.756;9.400;2022-12-20T08:26:12;10.20;81.60
9057;DHT22;4563;54.756;9.400;2022-12-20T08:28:42;10.20;81.60
9057;DHT22;4563;54.756;9.400;2022-12-20T08:31:09;10.20;81.40
9057;DHT22;4563;54.756;9.400;2022-12-20T08:33:37;10.20;81.40
9057;DHT22;4563;54.756;9.400;2022-12-20T08:36:06;10.30;81.80
9057;DHT22;4563;54.756;9.400;2022-12-20T08:38:35;10.20;81.50
9057;DHT22;4563;54.756;9.400;2022-12-20T08:41:03;10.30;81.70
9057;DHT22;4563;54.756;9.400;2022-12-20T08:43:31;10.30;81.70
9057;DHT22;4563;54.756;9.400;2022-12-20T08:45:58;10.30;81.70
9057;DHT22;4563;54.756;9.400;2022-12-20T08:48:25;10.30;81.50
9057;DHT22;4563;54.756;9.400;2022-12-20T08:50:56;10.30;81.70
9057;DHT22;4563;54.756;9.400;2022-12-20T08:53:23;10.30;81.40
9057;DHT22;4563;54.756;9.400;2022-12-20T08:55:52;10.30;81.70
9057;DHT22;4563;54.756;9.400;2022-12-20T08:58:19;10.40;81.80
9057;DHT22;4563;54.756;9.400;2022-12-20T09:00:46;10.40;81.80
9057;DHT22;4563;54.756;9.400;2022-12-20T09:03:13;10.40;81.80
9057;DHT22;4563;54.756;9.400;2022-12-20T09:05:46;10.40;82.50
9057;DHT22;4563;54.756;9.400;2022-12-20T09:08:14;10.40;81.80
9057;DHT22;4563;54.756;9.400;2022-12-20T09:10:41;10.50;81.90
9057;DHT22;4563;54.756;9.400;2022-12-20T09:13:14;10.50;82.00
9057;DHT22;4563;54.756;9.400;2022-12-20T09:15:41;10.50;82.00
9057;DHT22;4563;54.756;9.400;2022-12-20T09:18:10;10.50;81.70
9057;DHT22;4563;54.756;9.400;2022-12-20T09:20:41;10.50;81.90
9057;DHT22;4563;54.756;9.400;2022-12-20T09:23:08;10.50;81.90
9057;DHT22;4563;54.756;9.400;2022-12-20T09:25:36;10.50;81.70
9057;DHT22;4563;54.756;9.400;2022-12-20T09:28:03;10.60;82.00
9057;DHT22;4563;54.756;9.400;2022-12-20T09:30:32;10.60;82.10
9057;DHT22;4563;54.756;9.400;2022-12-20T09:32:59;10.60;82.10
9057;DHT22;4563;54.756;9.400;2022-12-20T09:35:25;10.60;82.10
9057;DHT22;4563;54.756;9.400;2022-12-20T09:37:52;10.70;82.20
9057;DHT22;4563;54.756;9.400;2022-12-20T09:40:22;10.70;81.90
9057;DHT22;4563;54.756;9.400;2022-12-20T09:42:50;10.70;82.20
9057;DHT22;4563;54.756;9.400;2022-12-20T09:45:23;10.70;82.20
9057;DHT22;4563;54.756;9.400;2022-12-20T09:47:53;10.70;82.30
9057;DHT22;4563;54.756;9.400;2022-12-20T09:50:35;10.70;82.10
9057;DHT22;4563;54.756;9.400;2022-12-20T09:53:27;10.80;82.10
9057;DHT22;4563;54.756;9.400;2022-12-20T09:56:02;10.80;82.20
9057;DHT22;4563;54.756;9.400;2022-12-20T09:58:53;10.90;82.30
9057;DHT22;4563;54.756;9.400;2022-12-20T10:01:31;10.80;81.70
9057;DHT22;4563;54.756;9.400;2022-12-20T10:04:28;10.80;81.80
9057;DHT22;4563;54.756;9.400;2022-12-20T10:07:15;10.80;81.70
9057;DHT22;4563;54.756;9.400;2022-12-20T10:10:25;10.80;81.80
9057;DHT22;4563;54.756;9.400;2022-12-20T10:13:19;10.90;81.80
9057;DHT22;4563;54.756;9.400;2022-12-20T10:15:51;10.90;82.20
9057;DHT22;4563;54.756;9.400;2022-12-20T10:18:42;10.90;82.00
9057;DHT22;4563;54.756;9.400;2022-12-20T10:21:20;11.00;81.90
9057;DHT22;4563;54.756;9.400;2022-12-20T10:23:57;10.90;81.80
9057;DHT22;4563;54.756;9.400;2022-12-20T10:26:27;11.00;82.20
9057;DHT22;4563;54.756;9.400;2022-12-20T10:28:54;11.00;82.30
9057;DHT22;4563;54.756;9.400;2022-12-20T10:31:21;11.00;82.30
9057;DHT22;4563;54.756;9.400;2022-12-20T10:33:48;11.00;82.40
9057;DHT22;4563;54.756;9.400;2022-12-20T10:36:22;11.00;82.30
9057;DHT22;4563;54.756;9.400;2022-12-20T10:38:51;11.10;82.50
9057;DHT22;4563;54.756;9.400;2022-12-20T10:41:20;11.10;82.50
9057;DHT22;4563;54.756;9.400;2022-12-20T10:43:51;11.10;82.50
9057;DHT22;4563;54.756;9.400;2022-12-20T10:46:21;11.10;82.50
9057;DHT22;4563;54.756;9.400;2022-12-20T10:48:48;11.10;82.40
9057;DHT22;4563;54.756;9.400;2022-12-20T10:51:18;11.10;82.50
9057;DHT22;4563;54.756;9.400;2022-12-20T10:53:58;11.10;82.10
9057;DHT22;4563;54.756;9.400;2022-12-20T10:56:27;11.10;82.10
9057;DHT22;4563;54.756;9.400;2022-12-20T10:58:56;11.10;82.40
9057;DHT22;4563;54.756;9.400;2022-12-20T11:01:27;11.10;82.50
9057;DHT22;4563;54.756;9.400;2022-12-20T11:04:00;11.20;82.40
9057;DHT22;4563;54.756;9.400;2022-12-20T11:06:40;11.20;82.40
9057;DHT22;4563;54.756;9.400;2022-12-20T11:09:24;11.20;82.20
9057;DHT22;4563;54.756;9.400;2022-12-20T11:11:59;11.20;82.10
9057;DHT22;4563;54.756;9.400;2022-12-20T11:14:27;11.20;82.50
9057;DHT22;4563;54.756;9.400;2022-12-20T11:16:55;11.20;82.60
9057;DHT22;4563;54.756;9.400;2022-12-20T11:19:44;11.20;82.60
9057;DHT22;4563;54.756;9.400;2022-12-20T11:22:20;11.20;82.10
9057;DHT22;4563;54.756;9.400;2022-12-20T11:25:00;11.20;82.50
9057;DHT22;4563;54.756;9.400;2022-12-20T11:27:34;11.20;82.30
9057;DHT22;4563;54.756;9.400;2022-12-20T11:30:14;11.30;82.70
9057;DHT22;4563;54.756;9.400;2022-12-20T11:33:09;11.30;82.60
9057;DHT22;4563;54.756;9.400;2022-12-20T11:35:48;11.30;82.20
9057;DHT22;4563;54.756;9.400;2022-12-20T11:38:25;11.30;82.60
9057;DHT22;4563;54.756;9.400;2022-12-20T11:41:12;11.30;82.60
9057;DHT22;4563;54.756;9.400;2022-12-20T11:43:51;11.30;82.20
9057;DHT22;4563;54.756;9.400;2022-12-20T11:46:30;11.30;82.70
9057;DHT22;4563;54.756;9.400;2022-12-20T11:52:04;11.40;82.70
9057;DHT22;4563;54.756;9.400;2022-12-20T11:54:35;11.40;82.80
9057;DHT22;4563;54.756;9.400;2022-12-20T11:57:12;11.40;82.80
9057;DHT22;4563;54.756;9.400;2022-12-20T11:59:44;11.40;82.80
9057;DHT22;4563;54.756;9.400;2022-12-20T12:02:14;11.40;82.80
9057;DHT22;4563;54.756;9.400;2022-12-20T12:04:47;11.40;82.90
9057;DHT22;4563;54.756;9.400;2022-12-20T12:07:19;11.50;82.90
9057;DHT22;4563;54.756;9.400;2022-12-20T12:09:54;11.40;82.90
9057;DHT22;4563;54.756;9.400;2022-12-20T12:12:27;11.50;83.00
9057;DHT22;4563;54.756;9.400;2022-12-20T12:14:58;11.50;82.80
9057;DHT22;4563;54.756;9.400;2022-12-20T12:17:33;11.50;83.00
9057;DHT22;4563;54.756;9.400;2022-12-20T12:20:32;11.50;82.90
9057;DHT22;4563;54.756;9.400;2022-12-20T12:23:04;11.50;82.60
9057;DHT22;4563;54.756;9.400;2022-12-20T12:25:32;11.50;82.90
9057;DHT22;4563;54.756;9.400;2022-12-20T12:28:02;11.50;83.00
9057;DHT22;4563;54.756;9.400;2022-12-20T12:30:35;11.50;82.70
9057;DHT22;4563;54.756;9.400;2022-12-20T12:33:09;11.50;82.50
9057;DHT22;4563;54.756;9.400;2022-12-20T12:35:47;11.50;82.60
9057;DHT22;4563;54.756;9.400;2022-12-20T12:47:15;11.50;82.70
9057;DHT22;4563;54.756;9.400;2022-12-20T12:49:47;11.50;82.60
9057;DHT22;4563;54.756;9.400;2022-12-20T12:52:33;11.50;82.90
9057;DHT22;4563;54.756;9.400;2022-12-20T12:55:03;11.50;82.70
9057;DHT22;4563;54.756;9.400;2022-12-20T12:57:53;11.60;83.70
9057;DHT22;4563;54.756;9.400;2022-12-20T13:00:49;11.60;82.60
9057;DHT22;4563;54.756;9.400;2022-12-20T13:03:38;11.60;82.60
9057;DHT22;4563;54.756;9.400;2022-12-20T13:09:18;11.60;82.60
9057;DHT22;4563;54.756;9.400;2022-12-20T13:11:47;11.50;82.50
9057;DHT22;4563;54.756;9.400;2022-12-20T13:14:47;11.60;83.20
9057;DHT22;4563;54.756;9.400;2022-12-20T13:17:42;11.60;82.80
9057;DHT22;4563;54.756;9.400;2022-12-20T13:20:17;11.60;82.60
9057;DHT22;4563;54.756;9.400;2022-12-20T13:23:12;11.60;83.00
9057;DHT22;4563;54.756;9.400;2022-12-20T13:25:40;11.60;82.60
9057;DHT22;4563;54.756;9.400;2022-12-20T13:31:30;11.60;82.60
9057;DHT22;4563;54.756;9.400;2022-12-20T13:34:00;11.60;82.60
9057;DHT22;4563;54.756;9.400;2022-12-20T13:36:31;11.60;83.20
9057;DHT22;4563;54.756;9.400;2022-12-20T13:39:00;11.60;83.10
9057;DHT22;4563;54.756;9.400;2022-12-20T13:41:33;11.60;83.20
9057;DHT22;4563;54.756;9.400;2022-12-20T13:44:09;11.60;83.40
9057;DHT22;4563;54.756;9.400;2022-12-20T13:46:46;11.60;83.20
9057;DHT22;4563;54.756;9.400;2022-12-20T13:49:21;11.60;83.20
9057;DHT22;4563;54.756;9.400;2022-12-20T13:52:06;11.60;83.20
9057;DHT22;4563;54.756;9.400;2022-12-20T13:54:40;11.60;82.90
9057;DHT22;4563;54.756;9.400;2022-12-20T13:57:10;11.60;83.20
9057;DHT22;4563;54.756;9.400;2022-12-20T13:59:39;11.60;83.30
9057;DHT22;4563;54.756;9.400;2022-12-20T14:02:18;11.60;83.30
9057;DHT22;4563;54.756;9.400;2022-12-20T14:04:53;11.60;83.20
9057;DHT22;4563;54.756;9.400;2022-12-20T14:07:22;11.60;83.30
9057;DHT22;4563;54.756;9.400;2022-12-20T14:09:55;11.60;83.40
9057;DHT22;4563;54.756;9.400;2022-12-20T14:12:22;11.60;83.30
9057;DHT22;4563;54.756;9.400;2022-12-20T14:14:50;11.60;83.30
9057;DHT22;4563;54.756;9.400;2022-12-20T14:17:22;11.60;83.40
9057;DHT22;4563;54.756;9.400;2022-12-20T14:20:11;11.60;83.40
9057;DHT22;4563;54.756;9.400;2022-12-20T14:22:41;11.60;83.20
9057;DHT22;4563;54.756;9.400;2022-12-20T14:25:14;11.60;83.40
9057;DHT22;4563;54.756;9.400;2022-12-20T14:27:43;11.60;83.50
9057;DHT22;4563;54.756;9.400;2022-12-20T14:30:26;11.60;83.50
9057;DHT22;4563;54.756;9.400;2022-12-20T14:32:53;11.60;83.20
9057;DHT22;4563;54.756;9.400;2022-12-20T14:35:23;11.60;83.50
9057;DHT22;4563;54.756;9.400;2022-12-20T14:37:55;11.60;83.50
9057;DHT22;4563;54.756;9.400;2022-12-20T14:40:23;11.60;83.50
9057;DHT22;4563;54.756;9.400;2022-12-20T14:42:50;11.50;83.40
9057;DHT22;4563;54.756;9.400;2022-12-20T14:45:24;11.50;83.40
9057;DHT22;4563;54.756;9.400;2022-12-20T14:47:57;11.60;83.60
9057;DHT22;4563;54.756;9.400;2022-12-20T14:50:29;11.50;83.40
9057;DHT22;4563;54.756;9.400;2022-12-20T14:52:56;11.60;84.30
9057;DHT22;4563;54.756;9.400;2022-12-20T14:55:30;11.60;83.50
9057;DHT22;4563;54.756;9.400;2022-12-20T14:57:57;11.50;83.50
9057;DHT22;4563;54.756;9.400;2022-12-20T15:00:27;11.60;83.60
9057;DHT22;4563;54.756;9.400;2022-12-20T15:03:00;11.60;83.70
9057;DHT22;4563;54.756;9.400;2022-12-20T15:05:53;11.60;83.60
9057;DHT22;4563;54.756;9.400;2022-12-20T15:08:23;11.60;83.00
9057;DHT22;4563;54.756;9.400;2022-12-20T15:10:57;11.50;83.50
9057;DHT22;4563;54.756;9.400;2022-12-20T15:13:28;11.50;83.50
9057;DHT22;4563;54.756;9.400;2022-12-20T15:16:01;11.60;83.60
9057;DHT22;4563;54.756;9.400;2022-12-20T15:18:29;11.50;83.50
9057;DHT22;4563;54.756;9.400;2022-12-20T15:21:05;11.60;83.70
9057;DHT22;4563;54.756;9.400;2022-12-20T15:23:46;11.60;83.50
9057;DHT22;4563;54.756;9.400;2022-12-20T15:26:14;11.60;83.40
9057;DHT22;4563;54.756;9.400;2022-12-20T15:28:41;11.60;83.70
9057;DHT22;4563;54.756;9.400;2022-12-20T15:31:09;11.60;83.70
9057;DHT22;4563;54.756;9.400;2022-12-20T15:33:40;11.60;83.70
9057;DHT22;4563;54.756;9.400;2022-12-20T15:36:15;11.60;83.70
9057;DHT22;4563;54.756;9.400;2022-12-20T15:38:42;11.60;83.60
9057;DHT22;4563;54.756;9.400;2022-12-20T15:41:14;11.60;83.60
9057;DHT22;4563;54.756;9.400;2022-12-20T15:43:42;11.60;83.60
9057;DHT22;4563;54.756;9.400;2022-12-20T15:46:10;11.60;83.70
9057;DHT22;4563;54.756;9.400;2022-12-20T15:48:37;11.60;83.60
9057;DHT22;4563;54.756;9.400;2022-12-20T15:51:15;11.60;83.70
9057;DHT22;4563;54.756;9.400;2022-12-20T15:53:43;11.60;83.60
9057;DHT22;4563;54.756;9.400;2022-12-20T15:56:17;11.60;83.70
9057;DHT22;4563;54.756;9.400;2022-12-20T15:58:46;11.60;83.60
9057;DHT22;4563;54.756;9.400;2022-12-20T16:01:16;11.60;83.80
9057;DHT22;4563;54.756;9.400;2022-12-20T16:03:45;11.60;83.70
9057;DHT22;4563;54.756;9.400;2022-12-20T16:06:17;11.60;83.70
9057;DHT22;4563;54.756;9.400;2022-12-20T16:08:44;11.60;83.60
9057;DHT22;4563;54.756;9.400;2022-12-20T16:11:22;11.60;83.70
9057;DHT22;4563;54.756;9.400;2022-12-20T16:17:15;11.70;83.30
9057;DHT22;4563;54.756;9.400;2022-12-20T16:19:51;11.60;83.60
9057;DHT22;4563;54.756;9.400;2022-12-20T16:22:26;11.60;83.60
9057;DHT22;4563;54.756;9.400;2022-12-20T16:24:53;11.60;83.70
9057;DHT22;4563;54.756;9.400;2022-12-20T16:27:23;11.60;83.70
9057;DHT22;4563;54.756;9.400;2022-12-20T16:29:50;11.60;83.70
9057;DHT22;4563;54.756;9.400;2022-12-20T16:32:18;11.60;83.60
9057;DHT22;4563;54.756;9.400;2022-12-20T16:34:48;11.60;83.70
9057;DHT22;4563;54.756;9.400;2022-12-20T16:37:17;11.70;83.90
9057;DHT22;4563;54.756;9.400;2022-12-20T16:39:50;11.60;83.80
9057;DHT22;4563;54.756;9.400;2022-12-20T16:42:19;11.70;83.70
9057;DHT22;4563;54.756;9.400;2022-12-20T16:44:49;11.70;83.70
9057;DHT22;4563;54.756;9.400;2022-12-20T16:47:17;11.70;83.90
9057;DHT22;4563;54.756;9.400;2022-12-20T16:49:44;11.70;83.70
9057;DHT22;4563;54.756;9.400;2022-12-20T16:52:16;11.70;83.80
9057;DHT22;4563;54.756;9.400;2022-12-20T16:54:43;11.70;83.80